Time;durP1;ratioP1;P1;durP2;ratioP2;P2;SDS_P1;SDS_P2;PMS_P1;PMS_P2;Temp;Humidity;BMP_temperature;BMP_pressure;BME280_temperature;BME280_humidity;BME280_pressure;Samples;Min_cycle;Max_cycle;Signal;HPM_P1;HPM_P2
2022/12/23 00:01:06;;;;;;;;;0.00;0.00;;;;;14.27;85.97;100210.59;5015758;28;45277;-58
2022/12/23 00:03:32;;;;;;;;;1.00;0.00;;;;;14.18;85.86;100204.13;4997391;28;45497;-57
2022/12/23 00:05:58;;;;;;;;;1.67;0.00;;;;;14.17;86.48;100205.09;5015301;28;45496;-57
2022/12/23 00:08:25;;;;;;;;;0.00;0.00;;;;;14.24;86.17;100200.13;5015450;28;45380;-57
2022/12/23 00:10:55;;;;;;;;;0.00;0.00;;;;;14.25;86.19;100222.38;4997385;28;45329;-58
2022/12/23 00:16:10;;;;;;;;;0.00;0.00;;;;;14.25;86.85;100214.38;5015324;28;45440;-57
2022/12/23 00:18:36;;;;;;;;;1.00;0.00;;;;;14.25;86.85;100217.03;4997787;28;45310;-59
2022/12/23 00:21:05;;;;;;;;;0.00;0.00;;;;;14.25;86.50;100219.72;4997816;28;45594;-58
2022/12/23 00:23:32;;;;;;;;;0.33;0.00;;;;;14.17;87.15;100210.44;5015343;28;45344;-57
2022/12/23 00:25:57;;;;;;;;;0.00;0.00;;;;;14.22;88.27;100223.50;4997526;28;45298;-58
2022/12/23 00:28:25;;;;;;;;;0.00;0.00;;;;;14.16;88.67;100215.91;5015368;28;45479;-57
2022/12/23 00:31:09;;;;;;;;;0.00;0.00;;;;;14.13;89.51;100219.69;5019366;28;45295;-57
2022/12/23 00:33:40;;;;;;;;;0.00;0.00;;;;;14.10;90.08;100224.44;5018337;28;45451;-57
2022/12/23 00:36:15;;;;;;;;;0.33;0.33;;;;;14.07;90.43;100222.84;5018673;28;45369;-57
2022/12/23 00:44:08;;;;;;;;;0.00;0.00;;;;;13.98;91.92;100212.00;5018650;28;45743;-58
2022/12/23 00:46:34;;;;;;;;;0.00;0.00;;;;;13.94;92.56;100224.75;5018496;28;45358;-56
2022/12/23 00:51:43;;;;;;;;;0.00;0.00;;;;;13.93;92.87;100220.34;5019174;28;45361;-58
2022/12/23 00:54:08;;;;;;;;;0.00;0.00;;;;;13.90;92.74;100228.59;5018108;28;46149;-58
2022/12/23 00:56:34;;;;;;;;;0.00;0.00;;;;;13.91;93.12;100241.00;5018321;28;45234;-58
2022/12/23 00:58:59;;;;;;;;;1.00;1.00;;;;;13.92;93.05;100248.03;5018135;28;45455;-60
2022/12/23 01:06:58;;;;;;;;;0.00;0.00;;;;;13.90;93.18;100274.03;5017874;28;45473;-57
2022/12/23 01:09:24;;;;;;;;;0.00;0.00;;;;;13.81;93.95;100256.91;5018160;28;45296;-58
2022/12/23 01:11:49;;;;;;;;;1.00;0.00;;;;;13.87;94.33;100274.28;5035912;28;45482;-57
2022/12/23 01:14:16;;;;;;;;;0.00;0.00;;;;;13.85;95.53;100274.41;5019882;28;45486;-56
2022/12/23 01:16:42;;;;;;;;;2.00;1.00;;;;;13.81;96.04;100270.25;5020164;28;45621;-58
2022/12/23 01:19:08;;;;;;;;;0.00;0.00;;;;;13.82;95.73;100265.75;5037871;28;45380;-57
2022/12/23 01:21:33;;;;;;;;;0.00;0.00;;;;;13.80;96.03;100260.53;5038002;28;45573;-56
2022/12/23 01:23:59;;;;;;;;;0.00;0.00;;;;;13.81;96.69;100256.91;5037845;28;45352;-56
2022/12/23 01:26:25;;;;;;;;;0.33;0.33;;;;;13.83;96.35;100270.13;5037623;28;45292;-60
2022/12/23 01:28:57;;;;;;;;;0.33;0.33;;;;;13.79;96.28;100260.63;5038134;28;45416;-57
2022/12/23 01:31:23;;;;;;;;;0.00;0.00;;;;;13.75;96.36;100245.78;5038112;28;45217;-57
2022/12/23 01:33:49;;;;;;;;;0.00;0.00;;;;;13.80;96.15;100265.88;5019796;28;48319;-57
2022/12/23 01:36:14;;;;;;;;;0.00;0.00;;;;;13.82;95.98;100271.97;5037273;28;45389;-58
2022/12/23 01:38:40;;;;;;;;;0.00;0.00;;;;;13.84;96.45;100267.34;5037769;28;45425;-56
2022/12/23 01:41:05;;;;;;;;;0.00;0.00;;;;;13.79;96.36;100252.59;5036616;28;45612;-55
2022/12/23 01:43:48;;;;;;;;;0.00;0.00;;;;;13.86;96.82;100268.09;5037440;28;47775;-57
2022/12/23 01:46:14;;;;;;;;;0.67;0.67;;;;;13.85;96.78;100265.53;5037317;28;45858;-56
2022/12/23 01:48:44;;;;;;;;;0.33;0.33;;;;;13.83;96.88;100265.66;5037497;28;45404;-56
2022/12/23 01:51:19;;;;;;;;;0.00;0.00;;;;;13.84;97.18;100270.03;5037629;28;45383;-56
2022/12/23 01:53:51;;;;;;;;;0.00;0.00;;;;;13.85;97.08;100265.53;5037013;28;46987;-57
2022/12/23 01:56:23;;;;;;;;;2.00;0.00;;;;;13.86;97.20;100269.91;5036363;28;45288;-57
2022/12/23 01:58:59;;;;;;;;;0.00;0.00;;;;;13.84;97.09;100272.69;5004807;28;45523;-56
2022/12/23 02:04:13;;;;;;;;;1.00;0.00;;;;;13.87;97.44;100268.94;5017164;28;45218;-57
2022/12/23 02:09:37;;;;;;;;;0.00;0.00;;;;;13.91;96.90;100274.91;5017776;28;45372;-56
2022/12/23 02:12:24;;;;;;;;;0.00;0.00;;;;;13.88;96.72;100274.16;5017209;28;45285;-57
2022/12/23 02:17:54;;;;;;;;;0.00;0.00;;;;;13.85;96.72;100257.50;5017137;28;45806;-57
2022/12/23 02:20:59;;;;;;;;;0.00;0.00;;;;;13.89;96.66;100269.66;5016821;28;45237;-57
2022/12/23 02:23:55;;;;;;;;;0.00;0.00;;;;;13.91;96.25;100262.38;5017531;28;45357;-57
2022/12/23 02:26:55;;;;;;;;;0.00;0.00;;;;;13.88;96.39;100258.13;5016741;28;45367;-57
2022/12/23 02:29:44;;;;;;;;;1.33;0.00;;;;;13.89;96.42;100253.63;5016412;28;45450;-56
2022/12/23 02:32:21;;;;;;;;;0.00;0.00;;;;;13.88;95.79;100257.28;5016818;28;45305;-58
2022/12/23 02:34:59;;;;;;;;;0.00;0.00;;;;;13.85;95.84;100253.00;5016713;28;45219;-57
2022/12/23 02:37:43;;;;;;;;;2.00;1.00;;;;;13.89;95.50;100258.97;4999024;28;48724;-56
2022/12/23 02:40:20;;;;;;;;;0.67;0.67;;;;;13.90;95.04;100260.69;5016680;28;45452;-56
2022/12/23 02:43:05;;;;;;;;;0.67;0.33;;;;;13.93;95.39;100249.75;5016754;28;45473;-57
2022/12/23 02:45:36;;;;;;;;;2.00;0.00;;;;;13.93;93.95;100252.41;5016966;28;45555;-57
2022/12/23 02:48:12;;;;;;;;;1.33;1.33;;;;;13.95;94.44;100249.66;5016583;28;46529;-56
2022/12/23 02:50:40;;;;;;;;;0.00;0.00;;;;;13.92;93.48;100232.00;5016339;28;45334;-57
2022/12/23 02:53:14;;;;;;;;;0.00;0.00;;;;;13.97;93.56;100253.91;4998645;28;45527;-58
2022/12/23 02:55:43;;;;;;;;;1.00;1.00;;;;;13.98;92.99;100250.28;5016705;28;45430;-57
2022/12/23 02:58:12;;;;;;;;;1.00;1.00;;;;;13.94;92.52;100240.78;5016127;28;45649;-57
2022/12/23 03:00:40;;;;;;;;;0.00;0.00;;;;;13.95;92.65;100249.66;5016322;28;45186;-57
2022/12/23 03:03:05;;;;;;;;;0.67;0.67;;;;;13.94;92.60;100245.28;5016578;28;45324;-57
2022/12/23 03:05:39;;;;;;;;;0.33;0.00;;;;;14.00;91.62;100253.69;5016343;28;45537;-58
2022/12/23 03:08:11;;;;;;;;;2.67;0.00;;;;;13.99;92.06;100259.16;5015886;28;46295;-57
2022/12/23 03:10:39;;;;;;;;;0.00;0.00;;;;;13.98;90.98;100257.44;5022587;28;45275;-57
2022/12/23 03:13:15;;;;;;;;;0.00;0.00;;;;;13.96;90.87;100254.03;5036249;28;45864;-56
2022/12/23 03:16:01;;;;;;;;;0.00;0.00;;;;;13.96;91.08;100252.22;5036282;28;45389;-56
2022/12/23 03:18:32;;;;;;;;;0.00;0.00;;;;;13.96;90.98;100244.19;5035300;28;45609;-57
2022/12/23 03:21:07;;;;;;;;;0.00;0.00;;;;;13.98;90.93;100226.22;5036284;28;45796;-57
2022/12/23 03:23:36;;;;;;;;;0.00;0.00;;;;;13.94;90.53;100213.19;5036326;28;45484;-57
2022/12/23 03:26:10;;;;;;;;;1.67;0.00;;;;;13.89;89.61;100226.91;5035931;28;45522;-57
2022/12/23 03:28:47;;;;;;;;;0.00;0.00;;;;;13.95;90.70;100226.44;5036087;28;45934;-57
2022/12/23 03:31:21;;;;;;;;;2.00;1.00;;;;;13.94;89.88;100237.25;5036047;28;45501;-58
2022/12/23 03:33:53;;;;;;;;;0.67;0.67;;;;;13.96;90.18;100228.16;5035665;28;45358;-58
2022/12/23 03:36:23;;;;;;;;;2.67;1.00;;;;;13.96;89.93;100233.50;5035906;28;45293;-58
2022/12/23 03:38:53;;;;;;;;;2.00;1.00;;;;;13.94;89.82;100224.75;5035568;28;45433;-58
2022/12/23 03:41:26;;;;;;;;;1.00;1.00;;;;;13.93;89.88;100244.41;5035503;28;45520;-57
2022/12/23 03:43:58;;;;;;;;;0.00;0.00;;;;;13.94;90.35;100240.78;5036102;28;45342;-57
2022/12/23 03:46:34;;;;;;;;;2.00;0.67;;;;;13.90;89.53;100228.59;5018046;28;45305;-58
2022/12/23 03:49:06;;;;;;;;;1.00;1.00;;;;;13.93;89.83;100222.16;5035997;28;46196;-58
2022/12/23 03:51:42;;;;;;;;;0.00;0.00;;;;;13.94;89.75;100232.78;5035816;28;45389;-57
2022/12/23 03:54:13;;;;;;;;;1.33;1.33;;;;;13.91;89.73;100224.97;5035808;28;45363;-57
2022/12/23 03:56:46;;;;;;;;;0.00;0.00;;;;;13.90;89.72;100217.91;5035556;28;45439;-57
2022/12/23 03:59:20;;;;;;;;;0.00;0.00;;;;;13.94;89.20;100240.78;5017590;28;46053;-57
2022/12/23 04:02:04;;;;;;;;;3.00;0.67;;;;;13.93;89.16;100244.41;4997468;28;45535;-57
2022/12/23 04:05:02;;;;;;;;;0.33;0.33;;;;;13.94;89.33;100242.59;4999828;28;45324;-58
2022/12/23 04:07:35;;;;;;;;;2.33;1.00;;;;;13.92;90.01;100234.69;5019817;28;45317;-58
2022/12/23 04:10:01;;;;;;;;;0.00;0.00;;;;;13.90;89.18;100225.06;5018928;28;46255;-58
2022/12/23 04:12:28;;;;;;;;;1.33;0.00;;;;;13.85;89.79;100204.91;5018884;28;45344;-59
2022/12/23 04:14:53;;;;;;;;;1.00;1.00;;;;;13.84;89.76;100207.69;5019109;28;45479;-57
2022/12/23 04:17:20;;;;;;;;;0.00;0.00;;;;;13.80;90.14;100216.88;5019078;28;45489;-57
2022/12/23 04:19:45;;;;;;;;;1.33;1.00;;;;;13.78;89.91;100213.47;5018666;28;45297;-57
2022/12/23 04:22:12;;;;;;;;;0.00;0.00;;;;;13.83;90.22;100208.66;5018648;28;45471;-58
2022/12/23 04:24:38;;;;;;;;;1.00;1.00;;;;;13.84;90.20;100218.38;5018627;28;45696;-57
2022/12/23 04:27:05;;;;;;;;;1.00;0.00;;;;;13.87;90.35;100221.66;5019088;28;45472;-57
2022/12/23 04:29:30;;;;;;;;;0.00;0.00;;;;;13.88;90.09;100225.19;5018436;28;45268;-57
2022/12/23 04:31:55;;;;;;;;;0.00;0.00;;;;;13.82;89.90;100214.97;5018763;28;45271;-57
2022/12/23 04:34:21;;;;;;;;;4.00;0.00;;;;;13.82;90.84;100236.38;5018739;28;45380;-58
2022/12/23 04:36:46;;;;;;;;;1.00;1.00;;;;;13.80;91.13;100235.59;5018943;28;45219;-57
2022/12/23 04:39:11;;;;;;;;;0.00;0.00;;;;;13.77;90.60;100223.31;5018712;28;45323;-57
2022/12/23 04:41:37;;;;;;;;;2.00;0.00;;;;;13.76;91.08;100226.13;5000995;28;45383;-57
2022/12/23 04:44:02;;;;;;;;;1.00;1.00;;;;;13.73;91.09;100221.84;4984877;28;45290;-57
2022/12/23 04:46:27;;;;;;;;;1.00;1.00;;;;;13.74;90.82;100223.56;5000782;28;45542;-57
2022/12/23 04:48:53;;;;;;;;;2.00;0.33;;;;;13.71;91.46;100212.25;5017494;28;68031;-58
2022/12/23 04:51:18;;;;;;;;;2.00;1.00;;;;;13.75;91.29;100211.06;5000490;28;45498;-56
2022/12/23 04:53:43;;;;;;;;;2.33;1.00;;;;;13.73;90.46;100210.31;5018523;28;45408;-58
2022/12/23 04:56:09;;;;;;;;;0.00;0.00;;;;;13.76;91.24;100207.41;5018372;28;45682;-57
2022/12/23 04:58:34;;;;;;;;;1.33;1.00;;;;;13.70;91.12;100184.69;5000639;28;46638;-58
2022/12/23 05:01:05;;;;;;;;;1.00;1.00;;;;;13.73;90.69;100199.63;5018132;28;45494;-57
2022/12/23 05:03:31;;;;;;;;;0.67;0.67;;;;;13.81;91.12;100198.09;5018617;28;45791;-57
2022/12/23 05:05:56;;;;;;;;;3.67;1.00;;;;;13.83;91.36;100196.16;5000683;28;45343;-59
2022/12/23 05:08:22;;;;;;;;;2.33;1.00;;;;;13.88;91.29;100195.78;5018142;28;45333;-57
2022/12/23 05:10:47;;;;;;;;;2.67;2.00;;;;;13.81;91.25;100192.75;5027299;28;45293;-62
2022/12/23 05:13:12;;;;;;;;;0.00;0.00;;;;;13.91;90.82;100198.22;5038377;28;45288;-62
2022/12/23 05:15:37;;;;;;;;;1.00;0.00;;;;;13.88;91.15;100195.78;5038380;28;45680;-60
2022/12/23 05:18:03;;;;;;;;;2.00;1.00;;;;;13.91;91.19;100198.22;5020367;28;45369;-58
2022/12/23 05:20:28;;;;;;;;;1.33;1.00;;;;;13.92;90.98;100205.28;5020290;28;45931;-57
2022/12/23 05:22:54;;;;;;;;;2.00;2.00;;;;;13.99;90.87;100200.31;5037879;28;47691;-57
2022/12/23 05:25:19;;;;;;;;;1.00;1.00;;;;;13.99;91.23;100190.47;5037823;28;45633;-57
2022/12/23 05:27:44;;;;;;;;;0.67;0.67;;;;;13.95;90.86;100182.81;5037253;28;45462;-57
2022/12/23 05:30:10;;;;;;;;;0.00;0.00;;;;;13.94;91.42;100181.13;5037514;28;56991;-58
2022/12/23 05:32:35;;;;;;;;;3.00;1.33;;;;;14.01;91.11;100188.53;5038197;28;45415;-57
2022/12/23 05:35:01;;;;;;;;;0.00;0.00;;;;;13.99;91.33;100187.81;5038357;28;45455;-57
2022/12/23 05:37:26;;;;;;;;;1.00;1.00;;;;;13.99;92.17;100182.47;5038069;28;46085;-57
2022/12/23 05:39:52;;;;;;;;;4.00;2.33;;;;;14.00;92.05;100186.84;5038141;28;45282;-57
2022/12/23 05:42:18;;;;;;;;;3.00;1.00;;;;;14.01;92.00;100183.19;5038259;28;45374;-56
2022/12/23 05:44:44;;;;;;;;;0.00;0.00;;;;;14.05;92.26;100178.44;5038148;28;45521;-57
2022/12/23 05:47:10;;;;;;;;;2.00;1.00;;;;;14.01;91.67;100161.81;5037451;28;46435;-58
2022/12/23 05:49:35;;;;;;;;;1.00;0.00;;;;;14.04;92.14;100166.91;5037784;28;45249;-57
2022/12/23 05:52:04;;;;;;;;;1.00;1.00;;;;;14.01;92.31;100156.44;5037652;28;45270;-57
2022/12/23 05:54:29;;;;;;;;;2.33;1.00;;;;;14.02;92.59;100142.13;5019827;28;45549;-56
2022/12/23 05:56:55;;;;;;;;;1.00;1.00;;;;;14.05;92.58;100149.03;5037142;28;46097;-57
2022/12/23 05:59:20;;;;;;;;;0.00;0.00;;;;;14.03;93.06;100151.84;5037178;28;45373;-57
2022/12/23 06:01:45;;;;;;;;;0.33;0.33;;;;;14.04;93.41;100156.22;5037557;28;45398;-57
2022/12/23 06:04:11;;;;;;;;;1.00;1.00;;;;;14.03;93.28;100159.84;5037409;28;45375;-57
2022/12/23 06:06:36;;;;;;;;;2.00;2.00;;;;;14.03;93.63;100162.53;5037217;28;46197;-57
2022/12/23 06:09:02;;;;;;;;;1.00;1.00;;;;;13.98;94.35;100167.38;5036863;28;45416;-57
2022/12/23 06:11:27;;;;;;;;;4.67;1.00;;;;;13.98;94.57;100172.75;5022378;28;45320;-57
2022/12/23 06:13:53;;;;;;;;;1.00;1.00;;;;;13.97;95.25;100165.69;5017435;28;45320;-58
2022/12/23 06:16:19;;;;;;;;;0.00;0.00;;;;;13.97;95.08;100165.69;5016780;28;46073;-57
2022/12/23 06:18:44;;;;;;;;;0.00;0.00;;;;;13.96;95.05;100153.28;4998442;28;45396;-57
2022/12/23 06:21:09;;;;;;;;;0.00;0.00;;;;;13.97;95.75;100154.16;5017186;28;45223;-58
2022/12/23 06:23:35;;;;;;;;;2.33;1.00;;;;;13.94;95.59;100155.25;5016928;28;45293;-57
2022/12/23 06:26:01;;;;;;;;;0.33;0.33;;;;;13.92;95.81;100151.81;4982570;28;46910;-57
2022/12/23 06:28:26;;;;;;;;;2.00;0.33;;;;;13.91;95.87;100150.09;5016352;28;45340;-57
2022/12/23 06:30:55;;;;;;;;;2.00;0.67;;;;;13.97;95.82;100159.50;5016805;28;45385;-56
2022/12/23 06:33:22;;;;;;;;;0.33;0.00;;;;;13.92;95.59;100157.16;4999312;28;45596;-57
2022/12/23 06:35:47;;;;;;;;;0.00;0.00;;;;;13.99;96.14;100150.38;4998898;28;45484;-56
2022/12/23 06:38:13;;;;;;;;;2.00;1.00;;;;;14.00;96.01;100148.56;5016830;28;45290;-56
2022/12/23 06:40:39;;;;;;;;;1.00;1.00;;;;;13.99;96.03;100131.66;5017320;28;45413;-56
2022/12/23 06:43:04;;;;;;;;;1.00;0.00;;;;;13.99;95.44;100126.31;5017093;28;45159;-56
2022/12/23 06:45:32;;;;;;;;;0.00;0.00;;;;;14.01;96.09;100128.88;5016791;28;45629;-57
2022/12/23 06:47:58;;;;;;;;;2.00;0.00;;;;;13.95;95.83;100116.84;5016696;28;45356;-57
2022/12/23 06:50:23;;;;;;;;;0.00;0.00;;;;;14.00;95.58;100122.66;5016590;28;45499;-58
2022/12/23 06:52:48;;;;;;;;;2.67;0.00;;;;;14.01;95.66;100124.38;5016964;28;45484;-58
2022/12/23 06:55:17;;;;;;;;;2.00;0.33;;;;;13.98;95.72;100119.28;5016825;28;45308;-58
2022/12/23 06:57:43;;;;;;;;;0.00;0.00;;;;;14.03;95.57;100110.88;5016579;28;45431;-58
2022/12/23 07:00:09;;;;;;;;;2.50;0.00;;;;;14.07;95.95;100121.22;5016796;28;45235;-58
2022/12/23 07:02:35;;;;;;;;;0.00;0.00;;;;;14.09;95.49;100115.75;5016836;28;45182;-58
2022/12/23 07:05:00;;;;;;;;;1.00;1.00;;;;;14.08;95.37;100111.38;5016423;28;45339;-57
2022/12/23 07:07:26;;;;;;;;;0.00;0.00;;;;;14.09;95.26;100107.75;5015973;28;45285;-57
2022/12/23 07:09:51;;;;;;;;;1.00;1.00;;;;;14.06;94.76;100100.81;5017795;28;45519;-58
2022/12/23 07:12:18;;;;;;;;;0.00;0.00;;;;;14.02;94.69;100095.81;5035614;28;45424;-58
2022/12/23 07:14:43;;;;;;;;;0.00;0.00;;;;;14.10;95.00;100099.59;5036741;28;46191;-58
2022/12/23 07:17:11;;;;;;;;;0.00;0.00;;;;;14.15;94.69;100105.41;5036832;28;45470;-57
2022/12/23 07:19:40;;;;;;;;;0.00;0.00;;;;;14.16;94.57;100099.09;5018305;28;45537;-57
2022/12/23 07:22:07;;;;;;;;;1.00;1.00;;;;;14.20;94.50;100099.72;5036591;28;45585;-57
2022/12/23 07:24:32;;;;;;;;;0.00;0.00;;;;;14.23;94.24;100098.63;5036025;28;45468;-57
2022/12/23 07:26:58;;;;;;;;;1.00;1.00;;;;;14.22;93.85;100088.91;5035812;28;45511;-57
2022/12/23 07:29:23;;;;;;;;;0.00;0.00;;;;;14.27;93.98;100097.41;5018001;28;45473;-57
2022/12/23 07:31:49;;;;;;;;;0.00;0.00;;;;;14.26;94.11;100085.84;5036005;28;45395;-56
2022/12/23 07:34:14;;;;;;;;;0.00;0.00;;;;;14.24;93.84;100084.28;5017743;28;46517;-57
2022/12/23 07:36:40;;;;;;;;;0.00;0.00;;;;;14.26;93.90;100088.53;5036049;28;45320;-57
2022/12/23 07:39:05;;;;;;;;;0.33;0.00;;;;;14.28;94.14;100093.75;5036882;28;45580;-58
2022/12/23 07:41:31;;;;;;;;;1.00;1.00;;;;;14.28;93.53;100089.25;5040037;28;45355;-57
2022/12/23 07:43:56;;;;;;;;;0.00;0.00;;;;;14.30;93.13;100089.97;5039131;28;46269;-57
2022/12/23 07:46:21;;;;;;;;;0.00;0.00;;;;;14.32;93.78;100095.22;5039652;28;45417;-57
2022/12/23 07:48:47;;;;;;;;;0.33;0.33;;;;;14.32;93.25;100092.53;5039169;28;45369;-57
2022/12/23 07:51:12;;;;;;;;;0.00;0.00;;;;;14.33;93.25;100102.28;5039525;28;45486;-57
2022/12/23 07:53:38;;;;;;;;;0.00;0.00;;;;;14.27;93.23;100087.56;5039126;28;46160;-57
2022/12/23 07:56:03;;;;;;;;;1.00;1.00;;;;;14.31;92.53;100098.84;5021137;28;45371;-57
2022/12/23 07:58:29;;;;;;;;;0.00;0.00;;;;;14.34;93.10;100088.78;5027355;28;45323;-58
2022/12/23 08:01:03;;;;;;;;;1.00;1.00;;;;;14.40;92.43;100092.78;5019368;28;45500;-57
2022/12/23 08:03:29;;;;;;;;;1.00;1.00;;;;;14.41;92.70;100083.78;5019626;28;46174;-59
2022/12/23 08:06:01;;;;;;;;;0.00;0.00;;;;;14.43;91.69;100081.84;5019128;28;45186;-56
2022/12/23 08:08:26;;;;;;;;;0.33;0.33;;;;;14.42;92.35;100077.47;5019604;28;45483;-57
2022/12/23 08:10:59;;;;;;;;;1.00;1.00;;;;;14.41;91.68;100095.34;5018471;28;45488;-58
2022/12/23 08:13:24;;;;;;;;;0.00;0.00;;;;;14.42;91.73;100086.34;5017804;28;45367;-57
2022/12/23 08:15:55;;;;;;;;;0.00;0.00;;;;;14.44;91.49;100075.53;5000282;28;45407;-58
2022/12/23 08:18:20;;;;;;;;;0.00;0.00;;;;;14.48;90.99;100079.69;5017702;28;45238;-58
2022/12/23 08:20:56;;;;;;;;;0.00;0.00;;;;;14.50;91.20;100072.38;5018407;28;45217;-58
2022/12/23 08:23:21;;;;;;;;;0.00;0.00;;;;;14.47;91.45;100050.38;5018141;28;46325;-57
2022/12/23 08:25:56;;;;;;;;;0.00;0.00;;;;;14.45;91.20;100037.97;5018033;28;45309;-58
2022/12/23 08:28:22;;;;;;;;;0.33;0.00;;;;;14.54;91.22;100057.78;5018152;28;45503;-57
2022/12/23 08:30:47;;;;;;;;;0.00;0.00;;;;;14.58;91.22;100059.22;5018054;28;45716;-57
2022/12/23 08:33:12;;;;;;;;;2.00;0.67;;;;;14.56;90.36;100053.16;5018127;28;46262;-57
2022/12/23 08:35:38;;;;;;;;;0.00;0.00;;;;;14.55;90.27;100056.78;5018149;28;45230;-58
2022/12/23 08:38:03;;;;;;;;;0.00;0.00;;;;;14.56;90.76;100055.81;5017589;28;45408;-58
2022/12/23 08:40:29;;;;;;;;;0.00;0.00;;;;;14.57;90.74;100037.94;5017990;28;45601;-58
2022/12/23 08:42:54;;;;;;;;;1.00;0.00;;;;;14.64;90.64;100048.03;4999198;28;47185;-58
2022/12/23 08:45:20;;;;;;;;;0.00;0.00;;;;;14.54;90.74;100033.69;5017585;28;45433;-57
2022/12/23 08:47:45;;;;;;;;;0.00;0.00;;;;;14.66;90.41;100039.88;5017832;28;45411;-58
2022/12/23 08:50:11;;;;;;;;;0.00;0.00;;;;;14.63;90.53;100032.94;5019153;28;45510;-58
2022/12/23 08:52:36;;;;;;;;;0.00;0.00;;;;;14.62;90.17;100031.25;5017730;28;45380;-56
2022/12/23 08:55:02;;;;;;;;;0.00;0.00;;;;;14.67;90.34;100015.66;5017790;28;45484;-59
2022/12/23 08:57:27;;;;;;;;;0.00;0.00;;;;;14.68;91.02;100011.16;5017713;28;45389;-57
2022/12/23 08:59:53;;;;;;;;;0.00;0.00;;;;;14.66;91.01;100003.25;5018138;28;45602;-57
2022/12/23 09:02:18;;;;;;;;;2.67;0.00;;;;;14.64;90.36;99999.84;5000866;28;47003;-58
2022/12/23 09:04:43;;;;;;;;;0.00;0.00;;;;;14.61;90.34;100000.13;5018973;28;45422;-58
2022/12/23 09:07:09;;;;;;;;;0.00;0.00;;;;;14.56;91.32;99964.84;5018027;28;45233;-59
2022/12/23 09:09:37;;;;;;;;;0.00;0.00;;;;;14.63;90.77;99955.34;5000398;28;45504;-57
2022/12/23 09:12:05;;;;;;;;;1.00;1.00;;;;;14.68;90.65;99931.72;4950126;28;1466781;-61
2022/12/23 09:14:31;;;;;;;;;0.67;0.00;;;;;14.70;90.83;99935.09;5018386;28;45509;-57
2022/12/23 09:16:56;;;;;;;;;3.00;0.00;;;;;14.62;89.95;99921.53;5018288;28;45717;-58
2022/12/23 09:19:22;;;;;;;;;0.00;0.00;;;;;14.64;90.30;99937.47;5018105;28;45625;-58
2022/12/23 09:21:47;;;;;;;;;0.00;0.00;;;;;14.69;89.92;99943.25;5018260;28;45713;-58
2022/12/23 09:24:13;;;;;;;;;0.67;0.67;;;;;14.72;90.32;99965.28;5017097;28;45428;-58
2022/12/23 09:26:38;;;;;;;;;0.00;0.00;;;;;14.74;89.98;99974.03;5017505;28;45411;-58
2022/12/23 09:29:03;;;;;;;;;0.00;0.00;;;;;14.71;89.90;99970.75;5018009;28;45361;-60
2022/12/23 09:31:29;;;;;;;;;0.00;0.00;;;;;14.80;89.63;99982.53;5017687;28;45846;-57
2022/12/23 09:33:54;;;;;;;;;1.67;0.00;;;;;14.80;89.71;99999.44;5018006;28;45312;-58
2022/12/23 09:36:21;;;;;;;;;0.00;0.00;;;;;14.80;89.53;99987.88;5017979;28;45190;-57
2022/12/23 09:38:52;;;;;;;;;0.00;0.00;;;;;14.82;89.39;99991.28;5018019;28;45608;-57
2022/12/23 09:41:36;;;;;;;;;0.00;0.00;;;;;14.83;89.90;100015.22;5017499;28;45529;-57
2022/12/23 09:44:16;;;;;;;;;0.00;0.00;;;;;14.85;89.56;100024.00;5017556;28;45378;-57
2022/12/23 09:46:50;;;;;;;;;0.00;0.00;;;;;14.87;89.36;100010.50;5017379;28;45294;-59
2022/12/23 09:49:17;;;;;;;;;0.00;0.00;;;;;14.87;89.01;100007.81;4999902;28;45242;-57
2022/12/23 09:51:44;;;;;;;;;0.00;0.00;;;;;14.89;89.65;100009.38;4982850;28;45291;-57
2022/12/23 09:54:21;;;;;;;;;0.00;0.00;;;;;14.89;88.88;100012.06;4999085;28;45470;-59
2022/12/23 09:56:53;;;;;;;;;0.00;0.00;;;;;14.93;89.39;100005.47;4999833;28;45469;-57
2022/12/23 09:59:54;;;;;;;;;0.00;0.00;;;;;14.97;89.01;100009.59;5017746;28;45597;-57
2022/12/23 10:02:29;;;;;;;;;1.00;1.00;;;;;14.99;88.83;100004.13;4998350;28;46646;-58
2022/12/23 10:05:49;;;;;;;;;0.00;0.00;;;;;14.99;89.12;100004.13;5016945;28;45250;-57
2022/12/23 10:08:40;;;;;;;;;0.00;0.00;;;;;14.97;88.13;99995.34;4898219;29;45387;-57
2022/12/23 10:11:12;;;;;;;;;0.00;0.00;;;;;15.04;88.27;99992.03;4909351;28;45603;-57
2022/12/23 10:13:42;;;;;;;;;0.00;0.00;;;;;15.02;88.35;99990.47;4984781;28;45862;-59
2022/12/23 10:16:21;;;;;;;;;1.00;1.00;;;;;15.01;87.93;99976.22;5016960;28;45247;-58
2022/12/23 10:18:46;;;;;;;;;2.00;0.00;;;;;15.12;86.85;99983.38;5016837;28;45507;-57
2022/12/23 10:21:39;;;;;;;;;1.00;0.00;;;;;15.15;87.97;99977.75;5016825;28;45267;-57
2022/12/23 10:24:15;;;;;;;;;0.00;0.00;;;;;15.08;87.30;99960.47;5016799;28;46147;-57
2022/12/23 10:26:46;;;;;;;;;0.00;0.00;;;;;15.16;87.38;99967.88;5016861;28;45336;-57
2022/12/23 10:29:23;;;;;;;;;0.00;0.00;;;;;15.16;87.72;99967.88;5017154;28;45420;-58
2022/12/23 10:32:17;;;;;;;;;0.00;0.00;;;;;15.18;87.94;99987.34;5017167;28;45582;-59
2022/12/23 10:34:54;;;;;;;;;0.00;0.00;;;;;15.15;88.23;99988.47;5016507;28;45366;-58
2022/12/23 10:37:22;;;;;;;;;0.00;0.00;;;;;15.16;89.30;99990.16;5017035;28;45439;-58
2022/12/23 10:39:53;;;;;;;;;0.00;0.00;;;;;15.13;89.10;99985.06;5016695;28;45309;-59
2022/12/23 10:42:24;;;;;;;;;0.00;0.00;;;;;15.13;89.93;99989.56;5017055;28;45309;-58
2022/12/23 10:44:58;;;;;;;;;0.00;0.00;;;;;15.15;90.00;99988.47;5017069;28;45371;-57
2022/12/23 10:47:38;;;;;;;;;0.00;0.00;;;;;15.12;89.86;99991.41;5017237;28;45375;-57
2022/12/23 10:50:15;;;;;;;;;2.00;0.00;;;;;15.12;90.00;99986.03;5017108;28;45371;-58
2022/12/23 10:52:44;;;;;;;;;0.00;0.00;;;;;15.11;89.75;99970.97;4999082;28;45696;-58
2022/12/23 10:55:29;;;;;;;;;0.00;0.00;;;;;15.21;89.53;99961.13;4998366;28;46734;-57
2022/12/23 10:57:58;;;;;;;;;0.00;0.00;;;;;15.24;88.87;99968.94;5016613;28;45414;-58
2022/12/23 11:00:24;;;;;;;;;0.00;0.00;;;;;15.25;88.62;99957.25;5016667;28;45352;-58
2022/12/23 11:03:12;;;;;;;;;0.00;0.00;;;;;15.29;88.04;99958.66;4998527;28;45413;-57
2022/12/23 11:05:38;;;;;;;;;1.33;1.33;;;;;15.34;87.68;99956.44;4998275;28;45369;-58
2022/12/23 11:08:04;;;;;;;;;0.00;0.00;;;;;15.44;87.70;99967.22;5015952;28;45484;-58
2022/12/23 11:10:32;;;;;;;;;2.00;0.00;;;;;15.44;87.23;99977.09;5022641;28;45238;-58
2022/12/23 11:12:59;;;;;;;;;0.00;0.00;;;;;15.46;86.44;99985.84;5036017;28;45312;-58
2022/12/23 11:15:26;;;;;;;;;0.00;0.00;;;;;15.48;86.81;99975.81;5017708;28;47116;-57
2022/12/23 11:18:00;;;;;;;;;0.00;0.00;;;;;15.50;86.10;99992.66;5036260;28;45359;-58
2022/12/23 11:20:26;;;;;;;;;0.00;0.00;;;;;15.55;86.53;100001.13;5017918;28;45482;-57
2022/12/23 11:23:00;;;;;;;;;0.33;0.33;;;;;15.55;84.83;100003.81;5036170;28;45324;-58
2022/12/23 11:25:40;;;;;;;;;0.00;0.00;;;;;15.56;85.42;99994.78;5036097;28;47052;-58
2022/12/23 11:28:13;;;;;;;;;0.00;0.00;;;;;15.60;85.33;99974.78;5036018;28;45209;-58
2022/12/23 11:30:46;;;;;;;;;0.33;0.33;;;;;15.66;84.94;100006.44;5036096;28;45305;-56
2022/12/23 11:33:35;;;;;;;;;0.00;0.00;;;;;15.71;85.01;100000.69;5036330;28;45378;-57
2022/12/23 11:36:12;;;;;;;;;0.00;0.00;;;;;15.75;83.58;99981.50;5035762;28;45337;-58
2022/12/23 11:39:10;;;;;;;;;0.00;0.00;;;;;15.79;82.78;99974.91;5035788;28;45785;-58
2022/12/23 11:42:10;;;;;;;;;1.00;0.00;;;;;15.85;83.74;99998.50;5017806;28;45417;-57
2022/12/23 11:44:50;;;;;;;;;0.00;0.00;;;;;15.89;82.46;99994.59;5014481;28;45538;-58
2022/12/23 11:47:36;;;;;;;;;0.00;0.00;;;;;15.93;83.37;99989.78;5035547;28;45419;-58
2022/12/23 11:50:25;;;;;;;;;0.00;0.00;;;;;16.01;82.15;99983.72;5017873;28;45513;-58
2022/12/23 11:52:59;;;;;;;;;3.33;0.00;;;;;16.09;82.20;99978.53;5035951;28;45319;-58
2022/12/23 11:55:33;;;;;;;;;0.00;0.00;;;;;16.10;80.85;99977.56;5036504;28;45331;-57
2022/12/23 11:58:01;;;;;;;;;0.00;0.00;;;;;16.22;81.08;99979.16;5027791;28;45497;-58
2022/12/23 12:00:49;;;;;;;;;0.00;0.00;;;;;16.28;80.81;99980.47;5015687;28;45294;-58
2022/12/23 12:03:20;;;;;;;;;0.00;0.00;;;;;16.34;80.04;99978.06;5015492;28;45455;-57
2022/12/23 12:06:05;;;;;;;;;1.00;0.00;;;;;16.32;77.58;99966.63;5015577;28;45505;-56